sensor_id;sensor_type;location;lat;lon;timestamp;pressure;altitude;pressure_sealevel;temperature;humidity
33454;BME280;39400;49.744;7.012;2022-07-05T00:01:07;96390.25;;;17.21;63.54
33454;BME280;39400;49.744;7.012;2022-07-05T00:03:35;96389.75;;;17.06;64.43
33454;BME280;39400;49.744;7.012;2022-07-05T00:06:02;96384.19;;;17.06;64.45
33454;BME280;39400;49.744;7.012;2022-07-05T00:08:30;96389.84;;;17.23;64.29
33454;BME280;39400;49.744;7.012;2022-07-05T00:10:57;96372.09;;;17.17;63.90
33454;BME280;39400;49.744;7.012;2022-07-05T00:13:25;96377.56;;;17.20;64.68
33454;BME280;39400;49.744;7.012;2022-07-05T00:15:52;96364.97;;;17.16;64.27
33454;BME280;39400;49.744;7.012;2022-07-05T00:18:19;96375.41;;;16.88;65.32
33454;BME280;39400;49.744;7.012;2022-07-05T00:20:47;96389.34;;;16.84;66.04
33454;BME280;39400;49.744;7.012;2022-07-05T00:23:14;96365.78;;;16.93;65.66
33454;BME280;39400;49.744;7.012;2022-07-05T00:25:42;96386.69;;;17.01;65.72
33454;BME280;39400;49.744;7.012;2022-07-05T00:28:09;96368.13;;;16.74;65.62
33454;BME280;39400;49.744;7.012;2022-07-05T00:30:37;96381.88;;;16.81;66.05
33454;BME280;39400;49.744;7.012;2022-07-05T00:33:05;96377.28;;;16.95;65.74
33454;BME280;39400;49.744;7.012;2022-07-05T00:35:32;96395.50;;;16.49;66.79
33454;BME280;39400;49.744;7.012;2022-07-05T00:37:59;96360.28;;;16.65;66.83
33454;BME280;39400;49.744;7.012;2022-07-05T00:40:27;96365.78;;;16.69;66.06
33454;BME280;39400;49.744;7.012;2022-07-05T00:42:54;96366.69;;;16.62;66.13
33454;BME280;39400;49.744;7.012;2022-07-05T00:45:22;96366.59;;;16.46;66.97
33454;BME280;39400;49.744;7.012;2022-07-05T00:47:49;96367.84;;;16.65;67.52
33454;BME280;39400;49.744;7.012;2022-07-05T00:50:16;96371.63;;;16.51;67.48
33454;BME280;39400;49.744;7.012;2022-07-05T00:52:45;96329.28;;;16.24;67.47
33454;BME280;39400;49.744;7.012;2022-07-05T00:55:12;96389.91;;;16.76;67.44
33454;BME280;39400;49.744;7.012;2022-07-05T00:57:40;96388.56;;;16.84;67.22
33454;BME280;39400;49.744;7.012;2022-07-05T01:00:08;96391.91;;;16.72;66.95
33454;BME280;39400;49.744;7.012;2022-07-05T01:02:35;96373.81;;;16.63;67.03
33454;BME280;39400;49.744;7.012;2022-07-05T01:05:03;96385.66;;;16.68;68.19
33454;BME280;39400;49.744;7.012;2022-07-05T01:07:31;96382.09;;;16.44;68.40
33454;BME280;39400;49.744;7.012;2022-07-05T01:09:58;96372.72;;;16.34;68.88
33454;BME280;39400;49.744;7.012;2022-07-05T01:12:25;96349.69;;;16.37;68.03
33454;BME280;39400;49.744;7.012;2022-07-05T01:14:53;96367.78;;;16.45;67.68
33454;BME280;39400;49.744;7.012;2022-07-05T01:17:22;96385.06;;;16.56;67.87
33454;BME280;39400;49.744;7.012;2022-07-05T01:19:50;96380.34;;;16.53;67.36
33454;BME280;39400;49.744;7.012;2022-07-05T01:22:20;96373.03;;;16.39;68.50
33454;BME280;39400;49.744;7.012;2022-07-05T01:24:51;96368.25;;;16.16;68.74
33454;BME280;39400;49.744;7.012;2022-07-05T01:27:20;96392.53;;;16.36;68.08
33454;BME280;39400;49.744;7.012;2022-07-05T01:29:47;96384.16;;;16.12;69.60
33454;BME280;39400;49.744;7.012;2022-07-05T01:32:16;96356.53;;;16.05;69.56
33454;BME280;39400;49.744;7.012;2022-07-05T01:34:44;96390.53;;;16.09;70.33
33454;BME280;39400;49.744;7.012;2022-07-05T01:37:12;96389.91;;;15.98;70.99
33454;BME280;39400;49.744;7.012;2022-07-05T01:39:39;96398.94;;;15.75;71.97
33454;BME280;39400;49.744;7.012;2022-07-05T01:42:07;96362.59;;;15.69;71.41
33454;BME280;39400;49.744;7.012;2022-07-05T01:44:34;96379.75;;;15.88;71.16
33454;BME280;39400;49.744;7.012;2022-07-05T01:47:05;96392.09;;;16.10;70.97
33454;BME280;39400;49.744;7.012;2022-07-05T01:49:36;96389.16;;;15.67;71.41
33454;BME280;39400;49.744;7.012;2022-07-05T01:52:12;96396.13;;;15.44;73.18
33454;BME280;39400;49.744;7.012;2022-07-05T01:54:41;96389.63;;;15.58;72.83
33454;BME280;39400;49.744;7.012;2022-07-05T01:57:09;96393.59;;;15.57;73.50
33454;BME280;39400;49.744;7.012;2022-07-05T01:59:37;96392.34;;;15.31;73.96
33454;BME280;39400;49.744;7.012;2022-07-05T02:02:07;96397.03;;;15.38;74.64
33454;BME280;39400;49.744;7.012;2022-07-05T02:04:35;96388.56;;;15.18;75.05
33454;BME280;39400;49.744;7.012;2022-07-05T02:07:06;96387.56;;;15.35;73.93
33454;BME280;39400;49.744;7.012;2022-07-05T02:09:34;96377.69;;;15.31;75.00
33454;BME280;39400;49.744;7.012;2022-07-05T02:12:03;96376.22;;;15.22;75.32
33454;BME280;39400;49.744;7.012;2022-07-05T02:14:32;96373.31;;;15.33;75.69
33454;BME280;39400;49.744;7.012;2022-07-05T02:17:02;96380.41;;;15.38;75.24
33454;BME280;39400;49.744;7.012;2022-07-05T02:19:31;96365.59;;;15.17;75.70
33454;BME280;39400;49.744;7.012;2022-07-05T02:21:59;96366.25;;;15.29;75.19
33454;BME280;39400;49.744;7.012;2022-07-05T02:24:26;96395.44;;;15.37;75.50
33454;BME280;39400;49.744;7.012;2022-07-05T02:27:03;96377.50;;;15.14;76.87
33454;BME280;39400;49.744;7.012;2022-07-05T02:29:31;96395.19;;;14.90;77.04
33454;BME280;39400;49.744;7.012;2022-07-05T02:32:01;96366.19;;;14.60;78.21
33454;BME280;39400;49.744;7.012;2022-07-05T02:34:28;96384.94;;;14.87;78.64
33454;BME280;39400;49.744;7.012;2022-07-05T02:36:56;96367.94;;;14.85;78.02
33454;BME280;39400;49.744;7.012;2022-07-05T02:39:23;96392.03;;;14.88;79.19
33454;BME280;39400;49.744;7.012;2022-07-05T02:41:53;96381.16;;;14.66;79.73
33454;BME280;39400;49.744;7.012;2022-07-05T02:44:21;96402.47;;;14.73;81.44
33454;BME280;39400;49.744;7.012;2022-07-05T02:46:49;96372.47;;;14.64;80.75
33454;BME280;39400;49.744;7.012;2022-07-05T02:49:17;96361.34;;;14.71;80.66
33454;BME280;39400;49.744;7.012;2022-07-05T02:51:45;96393.00;;;14.70;81.61
33454;BME280;39400;49.744;7.012;2022-07-05T02:54:13;96364.19;;;14.64;81.14
33454;BME280;39400;49.744;7.012;2022-07-05T02:56:42;96400.88;;;14.72;82.30
33454;BME280;39400;49.744;7.012;2022-07-05T02:59:13;96400.91;;;14.68;82.10
33454;BME280;39400;49.744;7.012;2022-07-05T03:01:40;96383.41;;;14.79;80.73
33454;BME280;39400;49.744;7.012;2022-07-05T03:04:12;96393.25;;;14.38;83.11
33454;BME280;39400;49.744;7.012;2022-07-05T03:06:46;96386.28;;;14.16;85.35
33454;BME280;39400;49.744;7.012;2022-07-05T03:09:20;96386.22;;;14.26;84.43
33454;BME280;39400;49.744;7.012;2022-07-05T03:11:47;96361.78;;;14.21;84.47
33454;BME280;39400;49.744;7.012;2022-07-05T03:14:15;96386.31;;;14.12;84.74
33454;BME280;39400;49.744;7.012;2022-07-05T03:16:44;96392.69;;;14.06;84.23
33454;BME280;39400;49.744;7.012;2022-07-05T03:19:12;96393.16;;;14.49;82.60
33454;BME280;39400;49.744;7.012;2022-07-05T03:21:40;96338.53;;;14.12;82.94
33454;BME280;39400;49.744;7.012;2022-07-05T03:24:09;96372.06;;;14.17;82.39
33454;BME280;39400;49.744;7.012;2022-07-05T03:26:38;96388.66;;;14.17;84.49
33454;BME280;39400;49.744;7.012;2022-07-05T03:29:05;96391.00;;;14.19;84.00
33454;BME280;39400;49.744;7.012;2022-07-05T03:31:33;96357.16;;;14.04;83.25
33454;BME280;39400;49.744;7.012;2022-07-05T03:34:03;96338.88;;;13.65;83.06
33454;BME280;39400;49.744;7.012;2022-07-05T03:36:32;96343.06;;;13.88;81.10
33454;BME280;39400;49.744;7.012;2022-07-05T03:39:03;96374.53;;;14.04;82.33
33454;BME280;39400;49.744;7.012;2022-07-05T03:41:32;96388.38;;;13.27;86.72
33454;BME280;39400;49.744;7.012;2022-07-05T03:44:00;96375.16;;;13.67;85.77
33454;BME280;39400;49.744;7.012;2022-07-05T03:46:28;96405.38;;;13.99;85.26
33454;BME280;39400;49.744;7.012;2022-07-05T03:48:56;96365.00;;;14.09;83.86
33454;BME280;39400;49.744;7.012;2022-07-05T03:51:23;96386.22;;;14.26;83.57
33454;BME280;39400;49.744;7.012;2022-07-05T03:53:53;96384.06;;;14.00;83.93
33454;BME280;39400;49.744;7.012;2022-07-05T03:56:21;96416.16;;;14.39;83.87
33454;BME280;39400;49.744;7.012;2022-07-05T03:58:52;96394.31;;;13.99;85.53
33454;BME280;39400;49.744;7.012;2022-07-05T04:01:19;96392.66;;;14.09;85.19
33454;BME280;39400;49.744;7.012;2022-07-05T04:03:47;96391.16;;;14.01;86.10
33454;BME280;39400;49.744;7.012;2022-07-05T04:06:16;96393.56;;;13.92;86.85
33454;BME280;39400;49.744;7.012;2022-07-05T04:08:44;96393.34;;;14.27;85.30
33454;BME280;39400;49.744;7.012;2022-07-05T04:11:12;96395.94;;;14.49;82.52
33454;BME280;39400;49.744;7.012;2022-07-05T04:13:43;96382.69;;;14.22;84.65
33454;BME280;39400;49.744;7.012;2022-07-05T04:16:11;96400.69;;;13.93;87.18
33454;BME280;39400;49.744;7.012;2022-07-05T04:18:38;96403.53;;;14.38;85.44
33454;BME280;39400;49.744;7.012;2022-07-05T04:21:06;96426.34;;;14.49;84.94
33454;BME280;39400;49.744;7.012;2022-07-05T04:23:34;96430.84;;;14.32;86.47
33454;BME280;39400;49.744;7.012;2022-07-05T04:26:03;96432.41;;;13.63;90.53
33454;BME280;39400;49.744;7.012;2022-07-05T04:28:40;96414.38;;;13.44;90.98
33454;BME280;39400;49.744;7.012;2022-07-05T04:31:10;96397.84;;;13.12;93.17
33454;BME280;39400;49.744;7.012;2022-07-05T04:33:42;96416.91;;;13.84;89.43
33454;BME280;39400;49.744;7.012;2022-07-05T04:36:12;96403.88;;;13.84;88.80
33454;BME280;39400;49.744;7.012;2022-07-05T04:38:40;96425.13;;;13.98;89.78
33454;BME280;39400;49.744;7.012;2022-07-05T04:41:08;96419.09;;;14.17;87.86
33454;BME280;39400;49.744;7.012;2022-07-05T04:43:38;96406.28;;;14.38;86.81
33454;BME280;39400;49.744;7.012;2022-07-05T04:46:09;96438.00;;;14.78;85.60
33454;BME280;39400;49.744;7.012;2022-07-05T04:48:36;96443.56;;;14.74;87.15
33454;BME280;39400;49.744;7.012;2022-07-05T04:51:05;96407.25;;;14.69;85.96
33454;BME280;39400;49.744;7.012;2022-07-05T04:53:33;96430.31;;;14.96;85.49
33454;BME280;39400;49.744;7.012;2022-07-05T04:56:00;96403.78;;;14.99;85.69
33454;BME280;39400;49.744;7.012;2022-07-05T04:58:28;96443.84;;;15.29;86.56
33454;BME280;39400;49.744;7.012;2022-07-05T05:00:55;96402.81;;;15.16;86.24
33454;BME280;39400;49.744;7.012;2022-07-05T05:03:22;96426.31;;;15.39;86.56
33454;BME280;39400;49.744;7.012;2022-07-05T05:05:51;96409.75;;;15.32;86.94
33454;BME280;39400;49.744;7.012;2022-07-05T05:08:18;96442.13;;;15.42;89.73
33454;BME280;39400;49.744;7.012;2022-07-05T05:10:45;96416.13;;;15.29;88.35
33454;BME280;39400;49.744;7.012;2022-07-05T05:13:13;96436.78;;;14.83;92.80
33454;BME280;39400;49.744;7.012;2022-07-05T05:15:40;96415.09;;;14.74;92.18
33454;BME280;39400;49.744;7.012;2022-07-05T05:18:08;96441.50;;;15.23;89.25
33454;BME280;39400;49.744;7.012;2022-07-05T05:20:35;96438.50;;;15.45;88.93
33454;BME280;39400;49.744;7.012;2022-07-05T05:23:07;96460.72;;;15.76;87.67
33454;BME280;39400;49.744;7.012;2022-07-05T05:25:34;96446.47;;;15.77;87.16
33454;BME280;39400;49.744;7.012;2022-07-05T05:28:03;96428.13;;;15.87;89.44
33454;BME280;39400;49.744;7.012;2022-07-05T05:30:30;96439.13;;;15.94;92.72
33454;BME280;39400;49.744;7.012;2022-07-05T05:32:57;96407.59;;;15.81;92.88
33454;BME280;39400;49.744;7.012;2022-07-05T05:35:25;96436.59;;;16.03;91.97
33454;BME280;39400;49.744;7.012;2022-07-05T05:37:54;96441.41;;;15.99;95.52
33454;BME280;39400;49.744;7.012;2022-07-05T05:40:23;96457.09;;;15.82;97.15
33454;BME280;39400;49.744;7.012;2022-07-05T05:42:52;96437.97;;;15.57;98.24
33454;BME280;39400;49.744;7.012;2022-07-05T05:45:20;96459.41;;;15.53;99.62
33454;BME280;39400;49.744;7.012;2022-07-05T05:47:52;96473.53;;;15.66;100.00
33454;BME280;39400;49.744;7.012;2022-07-05T05:50:22;96440.44;;;15.48;100.00
33454;BME280;39400;49.744;7.012;2022-07-05T05:52:49;96476.00;;;15.91;99.61
33454;BME280;39400;49.744;7.012;2022-07-05T05:55:17;96469.88;;;16.03;95.14
33454;BME280;39400;49.744;7.012;2022-07-05T05:57:45;96477.41;;;16.33;92.40
33454;BME280;39400;49.744;7.012;2022-07-05T06:00:13;96483.25;;;16.12;97.35
33454;BME280;39400;49.744;7.012;2022-07-05T06:02:42;96483.53;;;16.21;95.57
33454;BME280;39400;49.744;7.012;2022-07-05T06:05:10;96454.16;;;15.93;96.23
33454;BME280;39400;49.744;7.012;2022-07-05T06:07:52;96495.97;;;16.09;96.53
33454;BME280;39400;49.744;7.012;2022-07-05T06:10:21;96487.34;;;16.31;94.11
33454;BME280;39400;49.744;7.012;2022-07-05T06:12:50;96464.63;;;16.12;96.09
33454;BME280;39400;49.744;7.012;2022-07-05T06:15:18;96491.22;;;16.37;94.82
33454;BME280;39400;49.744;7.012;2022-07-05T06:17:46;96492.22;;;16.50;91.35
33454;BME280;39400;49.744;7.012;2022-07-05T06:20:17;96477.91;;;16.52;91.35
33454;BME280;39400;49.744;7.012;2022-07-05T06:22:45;96469.19;;;16.53;91.02
33454;BME280;39400;49.744;7.012;2022-07-05T06:25:13;96484.06;;;16.67;88.95
33454;BME280;39400;49.744;7.012;2022-07-05T06:27:52;96468.03;;;16.78;87.06
33454;BME280;39400;49.744;7.012;2022-07-05T06:30:21;96504.75;;;17.13;86.76
33454;BME280;39400;49.744;7.012;2022-07-05T06:32:49;96491.56;;;16.93;88.12
33454;BME280;39400;49.744;7.012;2022-07-05T06:35:18;96483.91;;;16.77;87.70
33454;BME280;39400;49.744;7.012;2022-07-05T06:40:34;96477.66;;;16.70;82.03
33454;BME280;39400;49.744;7.012;2022-07-05T06:43:03;96500.41;;;16.88;80.64
33454;BME280;39400;49.744;7.012;2022-07-05T06:45:40;96464.84;;;16.52;80.16
33454;BME280;39400;49.744;7.012;2022-07-05T06:48:09;96512.84;;;17.03;79.22
33454;BME280;39400;49.744;7.012;2022-07-05T06:50:39;96503.47;;;16.94;80.97
33454;BME280;39400;49.744;7.012;2022-07-05T06:53:07;96507.16;;;17.10;81.67
33454;BME280;39400;49.744;7.012;2022-07-05T06:55:34;96509.22;;;17.30;82.25
33454;BME280;39400;49.744;7.012;2022-07-05T06:58:06;96518.50;;;17.43;81.55
33454;BME280;39400;49.744;7.012;2022-07-05T07:00:42;96510.31;;;17.56;80.42
33454;BME280;39400;49.744;7.012;2022-07-05T07:03:30;96519.09;;;17.54;80.71
33454;BME280;39400;49.744;7.012;2022-07-05T07:06:17;96495.56;;;17.59;80.64
33454;BME280;39400;49.744;7.012;2022-07-05T07:08:46;96512.78;;;17.74;79.09
33454;BME280;39400;49.744;7.012;2022-07-05T07:11:30;96487.16;;;17.63;78.65
33454;BME280;39400;49.744;7.012;2022-07-05T07:13:58;96497.09;;;17.83;75.39
33454;BME280;39400;49.744;7.012;2022-07-05T07:16:25;96494.25;;;17.87;75.50
33454;BME280;39400;49.744;7.012;2022-07-05T07:18:53;96502.81;;;17.96;73.83
33454;BME280;39400;49.744;7.012;2022-07-05T07:21:38;96489.03;;;17.89;70.33
33454;BME280;39400;49.744;7.012;2022-07-05T07:24:06;96492.59;;;18.10;71.23
33454;BME280;39400;49.744;7.012;2022-07-05T07:26:33;96521.69;;;18.25;71.20
33454;BME280;39400;49.744;7.012;2022-07-05T07:29:21;96502.03;;;18.32;72.93
33454;BME280;39400;49.744;7.012;2022-07-05T07:31:48;96514.44;;;18.47;70.71
33454;BME280;39400;49.744;7.012;2022-07-05T07:34:15;96506.34;;;18.37;70.75
33454;BME280;39400;49.744;7.012;2022-07-05T07:36:43;96492.66;;;18.42;69.79
33454;BME280;39400;49.744;7.012;2022-07-05T07:39:10;96496.47;;;18.68;70.26
33454;BME280;39400;49.744;7.012;2022-07-05T07:41:38;96519.06;;;18.74;70.22
33454;BME280;39400;49.744;7.012;2022-07-05T07:44:06;96502.34;;;18.74;69.18
33454;BME280;39400;49.744;7.012;2022-07-05T07:46:33;96525.06;;;18.89;68.01
33454;BME280;39400;49.744;7.012;2022-07-05T07:49:01;96526.72;;;18.86;67.83
33454;BME280;39400;49.744;7.012;2022-07-05T07:51:29;96514.69;;;18.89;67.15
33454;BME280;39400;49.744;7.012;2022-07-05T07:53:57;96506.84;;;18.84;63.62
33454;BME280;39400;49.744;7.012;2022-07-05T07:56:38;96500.56;;;18.80;63.43
33454;BME280;39400;49.744;7.012;2022-07-05T07:59:06;96517.28;;;18.80;62.78
33454;BME280;39400;49.744;7.012;2022-07-05T08:01:33;96507.13;;;19.06;63.54
33454;BME280;39400;49.744;7.012;2022-07-05T08:04:07;96524.59;;;19.39;62.44
33454;BME280;39400;49.744;7.012;2022-07-05T08:06:35;96495.53;;;19.24;61.96
33454;BME280;39400;49.744;7.012;2022-07-05T08:09:02;96521.72;;;19.43;61.44
33454;BME280;39400;49.744;7.012;2022-07-05T08:11:30;96509.88;;;19.39;60.93
33454;BME280;39400;49.744;7.012;2022-07-05T08:13:57;96508.28;;;19.54;61.76
33454;BME280;39400;49.744;7.012;2022-07-05T08:16:24;96528.59;;;19.55;59.46
33454;BME280;39400;49.744;7.012;2022-07-05T08:18:52;96522.47;;;19.60;59.89
33454;BME280;39400;49.744;7.012;2022-07-05T08:21:54;96516.41;;;19.48;58.98
33454;BME280;39400;49.744;7.012;2022-07-05T08:24:22;96507.41;;;19.57;58.67
33454;BME280;39400;49.744;7.012;2022-07-05T08:26:49;96521.50;;;19.83;59.38
33454;BME280;39400;49.744;7.012;2022-07-05T08:29:16;96507.28;;;19.77;59.46
33454;BME280;39400;49.744;7.012;2022-07-05T08:31:51;96525.13;;;19.96;59.50
33454;BME280;39400;49.744;7.012;2022-07-05T08:34:19;96515.84;;;19.70;58.54
33454;BME280;39400;49.744;7.012;2022-07-05T08:36:47;96478.19;;;19.78;58.42
33454;BME280;39400;49.744;7.012;2022-07-05T08:39:15;96533.38;;;20.00;58.77
33454;BME280;39400;49.744;7.012;2022-07-05T08:41:45;96522.16;;;19.41;59.73
33454;BME280;39400;49.744;7.012;2022-07-05T08:44:18;96517.81;;;19.24;59.97
33454;BME280;39400;49.744;7.012;2022-07-05T08:46:47;96531.19;;;19.62;59.16
33454;BME280;39400;49.744;7.012;2022-07-05T08:49:14;96513.81;;;19.41;58.24
33454;BME280;39400;49.744;7.012;2022-07-05T08:51:44;96517.81;;;19.86;59.33
33454;BME280;39400;49.744;7.012;2022-07-05T08:54:12;96500.81;;;19.80;58.69
33454;BME280;39400;49.744;7.012;2022-07-05T08:56:46;96494.91;;;19.78;58.84
33454;BME280;39400;49.744;7.012;2022-07-05T08:59:33;96522.63;;;20.40;58.79
33454;BME280;39400;49.744;7.012;2022-07-05T09:02:01;96510.22;;;20.28;55.63
33454;BME280;39400;49.744;7.012;2022-07-05T09:04:31;96512.59;;;20.30;54.45
33454;BME280;39400;49.744;7.012;2022-07-05T09:07:03;96490.44;;;20.23;51.30
33454;BME280;39400;49.744;7.012;2022-07-05T09:09:33;96527.72;;;20.83;53.49
33454;BME280;39400;49.744;7.012;2022-07-05T09:12:01;96527.63;;;21.00;55.75
33454;BME280;39400;49.744;7.012;2022-07-05T09:14:48;96510.06;;;20.61;56.39
33454;BME280;39400;49.744;7.012;2022-07-05T09:17:16;96500.81;;;20.22;54.59
33454;BME280;39400;49.744;7.012;2022-07-05T09:19:45;96502.69;;;20.54;54.88
33454;BME280;39400;49.744;7.012;2022-07-05T09:22:17;96491.84;;;20.02;55.40
33454;BME280;39400;49.744;7.012;2022-07-05T09:24:45;96501.50;;;20.26;55.31
33454;BME280;39400;49.744;7.012;2022-07-05T09:27:14;96498.44;;;20.08;54.34
33454;BME280;39400;49.744;7.012;2022-07-05T09:29:57;96523.03;;;20.55;52.79
33454;BME280;39400;49.744;7.012;2022-07-05T09:32:29;96516.22;;;20.14;52.31
33454;BME280;39400;49.744;7.012;2022-07-05T09:35:19;96516.34;;;20.10;52.41
33454;BME280;39400;49.744;7.012;2022-07-05T09:37:46;96512.00;;;20.22;52.77
33454;BME280;39400;49.744;7.012;2022-07-05T09:40:14;96518.06;;;20.33;51.62
33454;BME280;39400;49.744;7.012;2022-07-05T09:42:47;96523.69;;;20.59;51.42
33454;BME280;39400;49.744;7.012;2022-07-05T09:45:23;96522.81;;;21.00;51.97
33454;BME280;39400;49.744;7.012;2022-07-05T09:47:50;96509.06;;;20.93;50.94
33454;BME280;39400;49.744;7.012;2022-07-05T09:50:40;96516.75;;;21.02;50.97
33454;BME280;39400;49.744;7.012;2022-07-05T09:53:44;96531.06;;;21.04;51.21
33454;BME280;39400;49.744;7.012;2022-07-05T09:56:11;96500.97;;;20.44;52.27
33454;BME280;39400;49.744;7.012;2022-07-05T09:58:41;96502.22;;;20.81;52.18
33454;BME280;39400;49.744;7.012;2022-07-05T10:01:30;96528.78;;;21.37;53.23
33454;BME280;39400;49.744;7.012;2022-07-05T10:04:00;96529.59;;;21.38;52.40
33454;BME280;39400;49.744;7.012;2022-07-05T10:06:31;96517.69;;;21.33;51.03
33454;BME280;39400;49.744;7.012;2022-07-05T10:09:00;96527.13;;;21.74;51.52
33454;BME280;39400;49.744;7.012;2022-07-05T10:11:27;96516.41;;;21.38;51.33
33454;BME280;39400;49.744;7.012;2022-07-05T10:13:58;96516.28;;;21.16;51.57
33454;BME280;39400;49.744;7.012;2022-07-05T10:16:26;96512.75;;;21.03;51.36
33454;BME280;39400;49.744;7.012;2022-07-05T10:18:55;96520.31;;;21.15;52.75
33454;BME280;39400;49.744;7.012;2022-07-05T10:21:24;96523.09;;;21.41;53.08
33454;BME280;39400;49.744;7.012;2022-07-05T10:23:53;96533.09;;;20.90;53.50
33454;BME280;39400;49.744;7.012;2022-07-05T10:26:23;96538.56;;;20.56;52.88
33454;BME280;39400;49.744;7.012;2022-07-05T10:28:53;96537.25;;;20.86;51.24
33454;BME280;39400;49.744;7.012;2022-07-05T10:31:28;96538.41;;;21.23;52.16
33454;BME280;39400;49.744;7.012;2022-07-05T10:33:57;96522.03;;;21.00;51.90
33454;BME280;39400;49.744;7.012;2022-07-05T10:36:54;96520.59;;;21.55;50.10
33454;BME280;39400;49.744;7.012;2022-07-05T10:39:22;96527.97;;;21.62;49.43
33454;BME280;39400;49.744;7.012;2022-07-05T10:41:54;96525.06;;;21.53;49.22
33454;BME280;39400;49.744;7.012;2022-07-05T10:44:26;96502.13;;;21.58;48.07
33454;BME280;39400;49.744;7.012;2022-07-05T10:47:12;96527.47;;;21.76;47.37
33454;BME280;39400;49.744;7.012;2022-07-05T10:49:40;96531.16;;;21.73;47.91
33454;BME280;39400;49.744;7.012;2022-07-05T10:52:24;96517.25;;;22.26;47.59
33454;BME280;39400;49.744;7.012;2022-07-05T10:55:17;96525.53;;;22.08;46.67
33454;BME280;39400;49.744;7.012;2022-07-05T10:58:17;96513.28;;;22.68;45.19
33454;BME280;39400;49.744;7.012;2022-07-05T11:06:42;96515.81;;;22.44;46.14
33454;BME280;39400;49.744;7.012;2022-07-05T11:11:40;96510.03;;;22.38;46.45
33454;BME280;39400;49.744;7.012;2022-07-05T11:19:59;96497.97;;;22.91;46.30
33454;BME280;39400;49.744;7.012;2022-07-05T11:22:27;96510.53;;;22.77;46.42
33454;BME280;39400;49.744;7.012;2022-07-05T11:24:56;96493.72;;;22.77;46.46
33454;BME280;39400;49.744;7.012;2022-07-05T11:27:23;96514.63;;;23.35;46.75
33454;BME280;39400;49.744;7.012;2022-07-05T11:29:55;96494.50;;;23.18;45.65
33454;BME280;39400;49.744;7.012;2022-07-05T11:32:34;96504.66;;;23.43;44.50
33454;BME280;39400;49.744;7.012;2022-07-05T11:35:17;96491.66;;;23.09;44.32
33454;BME280;39400;49.744;7.012;2022-07-05T11:38:05;96500.03;;;22.59;46.64
33454;BME280;39400;49.744;7.012;2022-07-05T11:41:11;96494.38;;;22.50;46.20
33454;BME280;39400;49.744;7.012;2022-07-05T11:43:40;96497.34;;;22.87;45.92
33454;BME280;39400;49.744;7.012;2022-07-05T11:46:08;96493.00;;;22.95;44.95
33454;BME280;39400;49.744;7.012;2022-07-05T11:48:56;96499.03;;;23.43;45.14
33454;BME280;39400;49.744;7.012;2022-07-05T11:51:23;96460.69;;;23.40;45.53
33454;BME280;39400;49.744;7.012;2022-07-05T11:53:51;96477.50;;;23.21;43.69
33454;BME280;39400;49.744;7.012;2022-07-05T11:56:39;96480.38;;;23.77;42.13
33454;BME280;39400;49.744;7.012;2022-07-05T11:59:23;96494.53;;;23.55;41.85
33454;BME280;39400;49.744;7.012;2022-07-05T12:01:52;96491.88;;;23.42;42.79
33454;BME280;39400;49.744;7.012;2022-07-05T12:04:24;96473.00;;;23.42;42.72
33454;BME280;39400;49.744;7.012;2022-07-05T12:06:53;96485.19;;;23.67;42.60
33454;BME280;39400;49.744;7.012;2022-07-05T12:09:26;96487.22;;;23.57;43.65
33454;BME280;39400;49.744;7.012;2022-07-05T12:11:55;96484.66;;;23.22;44.05
33454;BME280;39400;49.744;7.012;2022-07-05T12:14:51;96476.94;;;23.72;42.97
33454;BME280;39400;49.744;7.012;2022-07-05T12:17:20;96478.16;;;23.53;43.51
33454;BME280;39400;49.744;7.012;2022-07-05T12:19:53;96470.94;;;23.15;42.41
33454;BME280;39400;49.744;7.012;2022-07-05T12:22:33;96449.47;;;23.86;43.07
33454;BME280;39400;49.744;7.012;2022-07-05T12:25:02;96471.25;;;24.28;41.12
33454;BME280;39400;49.744;7.012;2022-07-05T12:27:31;96477.19;;;24.20;39.34
33454;BME280;39400;49.744;7.012;2022-07-05T12:29:59;96468.09;;;24.44;39.75
33454;BME280;39400;49.744;7.012;2022-07-05T12:32:30;96455.56;;;23.84;40.23
33454;BME280;39400;49.744;7.012;2022-07-05T12:34:58;96448.53;;;23.61;40.22
33454;BME280;39400;49.744;7.012;2022-07-05T12:37:33;96409.69;;;23.60;40.51
33454;BME280;39400;49.744;7.012;2022-07-05T12:40:08;96461.50;;;23.68;40.59
33454;BME280;39400;49.744;7.012;2022-07-05T12:42:37;96471.06;;;23.02;40.94
33454;BME280;39400;49.744;7.012;2022-07-05T12:45:09;96462.88;;;23.63;40.18
33454;BME280;39400;49.744;7.012;2022-07-05T12:47:57;96443.03;;;24.13;40.63
33454;BME280;39400;49.744;7.012;2022-07-05T12:50:27;96456.75;;;24.20;39.49
33454;BME280;39400;49.744;7.012;2022-07-05T12:53:19;96439.16;;;23.92;39.85
33454;BME280;39400;49.744;7.012;2022-07-05T12:56:07;96449.00;;;23.60;40.20
33454;BME280;39400;49.744;7.012;2022-07-05T12:58:56;96453.84;;;23.78;40.24
33454;BME280;39400;49.744;7.012;2022-07-05T13:01:27;96465.38;;;23.61;40.37
33454;BME280;39400;49.744;7.012;2022-07-05T13:03:56;96466.44;;;23.27;40.20
33454;BME280;39400;49.744;7.012;2022-07-05T13:09:10;96449.69;;;24.25;39.62
33454;BME280;39400;49.744;7.012;2022-07-05T13:11:39;96438.69;;;24.63;39.73
33454;BME280;39400;49.744;7.012;2022-07-05T13:14:06;96451.56;;;24.79;40.10
33454;BME280;39400;49.744;7.012;2022-07-05T13:16:33;96461.97;;;23.85;40.23
33454;BME280;39400;49.744;7.012;2022-07-05T13:19:08;96442.44;;;23.44;40.78
33454;BME280;39400;49.744;7.012;2022-07-05T13:21:36;96463.72;;;24.34;41.21
33454;BME280;39400;49.744;7.012;2022-07-05T13:24:04;96452.28;;;24.89;40.10
33454;BME280;39400;49.744;7.012;2022-07-05T13:26:32;96417.16;;;24.84;38.96
33454;BME280;39400;49.744;7.012;2022-07-05T13:28:59;96422.56;;;24.22;39.50
33454;BME280;39400;49.744;7.012;2022-07-05T13:31:27;96425.06;;;24.19;40.28
33454;BME280;39400;49.744;7.012;2022-07-05T13:33:57;96455.97;;;24.10;40.98
33454;BME280;39400;49.744;7.012;2022-07-05T13:36:26;96439.69;;;24.33;39.67
33454;BME280;39400;49.744;7.012;2022-07-05T13:38:54;96460.28;;;24.39;39.85